Radom, Illinois
Current Conditions -  °F | °C
As of 4:15 PM on Sunday 23 Nov 2014 (Local Time) from KENL Reporting Station
Moderate Rain Moderate Rain  
Wind Chill: 52°   Ceiling: 600
Heat Index: 52°   Visibility: 5mi
Dew Point: 50°   Wind: 3mph
Humidity: 93%   Direction: 120°ESE
Pressure: 29.35"   Gusts: NA
Location:  38.28°N, 89.19°W
Report Text: KENL 232215Z AUTO 12003KT 5SM RA OVC006 11/10 A2935 RMK AO2 P0002 T01110100
Loading
Personal Weather Stations






























Interactive Weather Map New forecast layout! Learn more

10-Day Weather Forecast

Advertisements
Track Severe Weather on mobile